createdAt,value
2019-02-21T00:05:05.682Z,20.77
2019-02-21T00:11:11.433Z,25.70
2019-02-21T00:17:17.187Z,23.90
2019-02-21T00:23:22.986Z,22.63
2019-02-21T00:29:29.008Z,20.13
2019-02-21T00:35:35.214Z,23.67
2019-02-21T00:41:41.336Z,22.87
2019-02-21T00:47:47.391Z,22.00
2019-02-21T00:53:53.510Z,23.93
2019-02-21T00:59:59.458Z,23.53
2019-02-21T01:06:05.599Z,25.97
2019-02-21T01:12:11.418Z,21.43
2019-02-21T01:18:17.178Z,27.17
2019-02-21T01:24:22.935Z,21.67
2019-02-21T01:30:28.918Z,24.83
2019-02-21T01:36:34.666Z,21.20
2019-02-21T01:42:40.961Z,22.20
2019-02-21T01:48:46.866Z,21.47
2019-02-21T01:54:52.617Z,20.47
2019-02-21T02:01:07.950Z,23.77
2019-02-21T02:07:06.040Z,22.60
2019-02-21T02:13:23.740Z,23.17
2019-02-21T02:19:19.380Z,20.27
2019-02-21T02:25:25.385Z,20.73
2019-02-21T02:31:31.124Z,18.83
2019-02-21T02:37:36.918Z,18.80
2019-02-21T02:43:42.802Z,20.47
2019-02-21T02:49:49.007Z,23.27
2019-02-21T02:55:54.815Z,21.73
2019-02-21T03:02:00.675Z,20.07
2019-02-21T03:08:06.624Z,20.60
2019-02-21T03:14:12.356Z,18.80
2019-02-21T03:20:18.130Z,18.43
2019-02-21T03:26:23.864Z,18.23
2019-02-21T03:32:29.668Z,18.23
2019-02-21T03:38:35.891Z,17.80
2019-02-21T03:44:41.768Z,17.40
2019-02-21T03:50:47.847Z,17.90
2019-02-21T03:56:53.761Z,19.37
2019-02-21T04:02:59.599Z,21.87
2019-02-21T04:09:08.982Z,17.53
2019-02-21T04:15:14.895Z,18.23
2019-02-21T04:21:21.128Z,17.67
2019-02-21T04:27:27.084Z,20.40
2019-02-21T04:33:34.448Z,22.20
2019-02-21T04:39:40.548Z,22.27
2019-02-21T04:45:46.597Z,27.93
2019-02-21T04:51:52.727Z,22.93
2019-02-21T04:57:58.626Z,22.17
2019-02-21T05:04:05.050Z,22.93
2019-02-21T05:10:10.947Z,23.67
2019-02-21T05:16:17.019Z,23.60
2019-02-21T05:22:22.878Z,25.03
2019-02-21T05:28:30.976Z,27.17
2019-02-21T05:34:58.978Z,25.13
2019-02-21T05:41:32.818Z,30.33
2019-02-21T05:47:55.014Z,27.07
2019-02-21T05:54:19.761Z,26.13
2019-02-21T06:00:37.429Z,27.23
2019-02-21T06:06:58.556Z,28.13
2019-02-21T06:13:27.004Z,31.03
2019-02-21T06:19:55.747Z,33.10
2019-02-21T06:26:18.019Z,35.33
2019-02-21T06:32:24.006Z,33.53
2019-02-21T06:38:29.831Z,37.80
2019-02-21T06:44:37.934Z,35.03
2019-02-21T06:50:44.126Z,36.20
2019-02-21T06:56:50.014Z,38.63
2019-02-21T07:02:56.014Z,36.30
2019-02-21T07:09:02.204Z,40.90
2019-02-21T07:15:09.980Z,39.53
2019-02-21T07:21:15.939Z,36.23
2019-02-21T07:27:21.782Z,40.20
2019-02-21T07:33:31.063Z,41.73
2019-02-21T07:39:43.919Z,35.40
2019-02-21T07:45:50.290Z,38.77
2019-02-21T07:51:56.019Z,36.77
2019-02-21T07:58:04.003Z,35.27
2019-02-21T08:04:09.461Z,32.33
2019-02-21T08:10:15.479Z,33.03
2019-02-21T08:16:21.399Z,34.07
2019-02-21T08:22:27.167Z,31.83
2019-02-21T08:28:33.040Z,29.77
2019-02-21T08:34:48.030Z,34.37
2019-02-21T08:40:53.405Z,33.53
2019-02-21T08:46:59.502Z,31.47
2019-02-21T08:53:05.271Z,37.10
2019-02-21T08:59:11.030Z,32.60
2019-02-21T09:05:17.139Z,36.30
2019-02-21T09:11:22.984Z,33.97
2019-02-21T09:17:29.011Z,31.73
2019-02-21T09:23:34.785Z,34.80
2019-02-21T09:29:40.510Z,32.83
2019-02-21T09:35:46.442Z,35.53
2019-02-21T09:41:52.636Z,32.63
2019-02-21T09:47:58.835Z,32.37
2019-02-21T09:54:04.747Z,35.13
2019-02-21T10:00:15.261Z,35.67
2019-02-21T10:06:21.169Z,38.17
2019-02-21T10:12:26.897Z,34.13
2019-02-21T10:18:32.694Z,39.07
2019-02-21T10:24:38.658Z,36.50
2019-02-21T10:30:44.727Z,39.30
2019-02-21T10:36:50.746Z,37.57
2019-02-21T10:42:56.571Z,40.93
2019-02-21T10:49:02.351Z,40.43
2019-02-21T10:55:08.673Z,39.07
2019-02-21T11:01:14.439Z,33.67
2019-02-21T11:07:20.187Z,36.70
2019-02-21T11:13:25.970Z,37.80
2019-02-21T11:19:32.292Z,33.10
2019-02-21T11:25:38.530Z,33.60
2019-02-21T11:31:44.448Z,30.40
2019-02-21T11:37:50.394Z,32.60
2019-02-21T11:43:56.787Z,32.63
2019-02-21T11:50:02.872Z,30.00
2019-02-21T11:56:09.828Z,28.10
2019-02-21T12:02:15.703Z,23.47
2019-02-21T12:08:23.369Z,23.40
2019-02-21T12:14:29.665Z,21.70
2019-02-21T12:20:35.652Z,17.77
2019-02-21T12:26:41.708Z,18.53
2019-02-21T12:32:48.130Z,17.67
2019-02-21T12:38:53.901Z,17.33
2019-02-21T12:44:59.732Z,16.77
2019-02-21T12:51:05.806Z,13.83
2019-02-21T12:57:12.201Z,11.90
2019-02-21T13:03:17.984Z,14.57
2019-02-21T13:09:24.358Z,14.50
2019-02-21T13:15:30.435Z,14.60
2019-02-21T13:21:36.230Z,15.07
2019-02-21T13:27:42.226Z,16.10
2019-02-21T13:33:48.160Z,15.63
2019-02-21T13:39:54.088Z,15.70
2019-02-21T13:46:00.139Z,14.60
2019-02-21T13:52:05.926Z,16.07
2019-02-21T13:58:11.709Z,16.00
2019-02-21T14:04:17.708Z,16.20
2019-02-21T14:10:23.561Z,18.07
2019-02-21T14:16:29.831Z,17.97
2019-02-21T14:22:35.743Z,18.53
2019-02-21T14:28:41.509Z,21.50
2019-02-21T14:34:47.375Z,17.83
2019-02-21T14:40:53.297Z,17.87
2019-02-21T14:46:59.966Z,18.00
2019-02-21T14:53:06.734Z,18.70
2019-02-21T14:59:12.982Z,18.57
2019-02-21T15:05:19.108Z,19.40
2019-02-21T15:11:25.476Z,20.90
2019-02-21T15:17:32.082Z,20.17
2019-02-21T15:23:38.174Z,23.03
2019-02-21T15:29:43.980Z,21.23
2019-02-21T15:35:50.058Z,22.43
2019-02-21T15:41:56.013Z,25.50
2019-02-21T15:48:02.405Z,23.43
2019-02-21T15:54:08.467Z,21.53
2019-02-21T16:00:17.312Z,22.90
2019-02-21T16:06:23.462Z,21.13
2019-02-21T16:12:29.415Z,24.03
2019-02-21T16:18:35.615Z,24.20
2019-02-21T16:24:43.710Z,22.27
2019-02-21T16:30:49.784Z,23.30
2019-02-21T16:37:02.477Z,23.43
2019-02-21T16:43:08.029Z,24.90
2019-02-21T16:49:13.910Z,25.00
2019-02-21T16:55:20.371Z,22.57
2019-02-21T17:01:26.169Z,22.53
2019-02-21T17:07:32.006Z,25.23
2019-02-21T17:13:38.845Z,26.50
2019-02-21T17:19:45.188Z,26.43
2019-02-21T17:25:51.079Z,22.73
2019-02-21T17:31:56.910Z,26.30
2019-02-21T17:38:02.789Z,22.10
2019-02-21T17:44:08.795Z,22.83
2019-02-21T17:50:15.504Z,26.10
2019-02-21T17:56:43.158Z,25.07
2019-02-21T18:02:46.618Z,26.43
2019-02-21T18:08:55.038Z,27.03
2019-02-21T18:15:00.743Z,26.33
2019-02-21T18:21:08.292Z,30.70
2019-02-21T18:27:14.640Z,33.10
2019-02-21T18:33:20.900Z,31.33
2019-02-21T18:39:26.989Z,34.07
2019-02-21T18:45:32.958Z,31.37
2019-02-21T18:51:38.971Z,32.87
2019-02-21T18:57:46.884Z,34.47
2019-02-21T19:03:52.943Z,32.27
2019-02-21T19:09:59.149Z,34.20
2019-02-21T19:16:05.367Z,37.07
2019-02-21T19:22:11.601Z,32.23
2019-02-21T19:28:36.489Z,34.50
2019-02-21T19:34:43.133Z,31.13
2019-02-21T19:40:48.990Z,30.60
2019-02-21T19:46:55.283Z,30.67
2019-02-21T19:53:01.346Z,28.40
2019-02-21T19:59:08.280Z,28.37
2019-02-21T20:05:14.154Z,25.93
2019-02-21T20:11:19.966Z,27.27
2019-02-21T20:17:26.323Z,28.20
2019-02-21T20:23:32.176Z,29.80
2019-02-21T20:29:38.146Z,35.10
2019-02-21T20:35:44.339Z,34.73
2019-02-21T20:41:50.213Z,35.00
2019-02-21T20:47:56.583Z,35.47
2019-02-21T20:54:02.536Z,39.40
2019-02-21T21:00:11.054Z,41.43
2019-02-21T21:06:16.976Z,39.97
2019-02-21T21:12:23.181Z,49.00
2019-02-21T21:18:29.659Z,48.40
2019-02-21T21:24:35.734Z,55.40
2019-02-21T21:30:42.017Z,53.30
2019-02-21T21:36:47.922Z,57.10
2019-02-21T21:42:54.045Z,53.00
2019-02-21T21:49:00.031Z,57.20
2019-02-21T21:55:06.534Z,57.83
2019-02-21T22:01:12.535Z,62.07
2019-02-21T22:07:18.484Z,57.67
2019-02-21T22:13:24.667Z,63.77
2019-02-21T22:19:30.928Z,61.73
2019-02-21T22:25:37.453Z,69.13
2019-02-21T22:31:43.549Z,73.30
2019-02-21T22:37:49.391Z,79.63
2019-02-21T22:43:55.280Z,73.13
2019-02-21T22:50:01.566Z,83.13
2019-02-21T22:56:07.655Z,76.83
2019-02-21T23:02:13.965Z,88.70
2019-02-21T23:08:54.008Z,86.53
2019-02-21T23:14:59.777Z,85.07
2019-02-21T23:21:05.712Z,89.93
2019-02-21T23:27:11.524Z,89.47
2019-02-21T23:33:17.701Z,86.50
2019-02-21T23:39:23.499Z,100.80
2019-02-21T23:45:29.415Z,99.73
2019-02-21T23:51:35.330Z,96.20
2019-02-21T23:57:41.324Z,97.67
